Time;durP1;ratioP1;P1;durP2;ratioP2;P2;SDS_P1;SDS_P2;PMS_P1;PMS_P2;Temp;Humidity;BMP_temperature;BMP_pressure;BME280_temperature;BME280_humidity;BME280_pressure;Samples;Min_cycle;Max_cycle;Signal;HPM_P1;HPM_P2
2023/01/01 00:02:24;;;;;;;11.95;5.88;;;15.90;1.00;;;;;;5017612;28;20200;-67
2023/01/01 00:04:52;;;;;;;8.95;5.55;;;15.90;1.00;;;;;;4999445;28;20233;-66
2023/01/01 00:07:19;;;;;;;13.85;5.97;;;15.90;1.00;;;;;;5014168;28;20196;-65
2023/01/01 00:12:32;;;;;;;14.30;5.38;;;15.90;1.00;;;;;;5013702;28;20227;-65
2023/01/01 00:14:59;;;;;;;17.98;6.32;;;16.00;1.00;;;;;;5013062;28;20690;-65
2023/01/01 00:17:28;;;;;;;10.10;5.88;;;16.00;1.00;;;;;;5016423;28;20284;-65
2023/01/01 00:19:55;;;;;;;10.10;5.72;;;16.00;1.00;;;;;;4982038;28;20232;-65
2023/01/01 00:22:23;;;;;;;16.40;5.65;;;16.10;1.00;;;;;;5010868;28;20719;-65
2023/01/01 00:25:16;;;;;;;11.57;5.95;;;16.20;1.00;;;;;;5015947;28;20314;-69
2023/01/01 00:27:43;;;;;;;13.95;5.85;;;16.30;1.00;;;;;;5017941;28;20572;-69
2023/01/01 00:30:11;;;;;;;14.00;5.82;;;16.20;1.00;;;;;;4983650;28;20219;-69
2023/01/01 00:32:38;;;;;;;16.75;5.35;;;16.20;1.00;;;;;;5000344;28;20188;-68
2023/01/01 00:35:05;;;;;;;14.35;5.38;;;16.20;1.00;;;;;;4998682;28;20688;-70
2023/01/01 00:37:32;;;;;;;15.68;5.63;;;16.30;1.00;;;;;;5016731;28;20188;-70
2023/01/01 00:39:59;;;;;;;11.75;5.90;;;16.30;1.00;;;;;;4999206;28;20453;-69
2023/01/01 00:42:26;;;;;;;12.85;4.85;;;16.30;1.00;;;;;;4998569;28;20714;-69
2023/01/01 00:44:53;;;;;;;10.68;4.65;;;16.20;1.00;;;;;;4981697;28;20739;-70
2023/01/01 00:47:20;;;;;;;10.95;5.10;;;16.20;1.00;;;;;;5015566;28;20771;-71
2023/01/01 00:49:47;;;;;;;8.18;4.20;;;16.10;1.00;;;;;;4998290;28;20211;-70
2023/01/01 00:52:14;;;;;;;12.68;4.57;;;16.00;1.00;;;;;;4999049;28;20251;-71
2023/01/01 00:54:41;;;;;;;10.82;4.30;;;16.00;1.00;;;;;;5005233;28;20531;-69
2023/01/01 00:57:08;;;;;;;13.38;4.18;;;16.00;1.00;;;;;;5016850;28;20945;-69
2023/01/01 00:59:37;;;;;;;12.27;3.90;;;16.00;1.00;;;;;;5016585;28;20265;-69
2023/01/01 01:02:04;;;;;;;14.77;4.88;;;15.90;1.00;;;;;;5015445;28;20659;-71
2023/01/01 01:04:31;;;;;;;11.23;4.28;;;15.80;1.00;;;;;;4998379;28;20611;-69
2023/01/01 01:06:58;;;;;;;7.55;4.50;;;15.70;1.00;;;;;;4980409;28;20531;-70
2023/01/01 01:09:25;;;;;;;9.75;3.97;;;15.60;1.00;;;;;;4999582;28;20219;-70
2023/01/01 01:11:52;;;;;;;11.48;4.15;;;15.70;1.00;;;;;;5018432;28;20196;-70
2023/01/01 01:14:40;;;;;;;9.23;4.20;;;15.70;1.00;;;;;;4988098;28;20202;-70
2023/01/01 01:17:07;;;;;;;13.32;4.65;;;15.70;1.00;;;;;;4998632;28;20199;-69
2023/01/01 01:19:34;;;;;;;7.20;4.00;;;15.70;1.00;;;;;;5018952;28;20274;-69
2023/01/01 01:22:00;;;;;;;10.80;4.72;;;15.80;1.00;;;;;;4995142;28;20668;-69
2023/01/01 01:24:28;;;;;;;9.02;4.50;;;15.80;1.00;;;;;;5001148;28;20275;-69
2023/01/01 01:26:55;;;;;;;11.48;5.03;;;15.80;1.00;;;;;;5020217;28;20267;-69
2023/01/01 01:29:22;;;;;;;14.55;4.55;;;15.80;1.00;;;;;;5002504;28;20216;-69
2023/01/01 01:31:50;;;;;;;9.90;5.03;;;15.70;1.00;;;;;;4994365;28;20234;-68
2023/01/01 01:34:17;;;;;;;9.35;5.22;;;15.80;1.00;;;;;;5001998;28;20609;-69
2023/01/01 01:36:51;;;;;;;12.63;6.05;;;15.60;1.00;;;;;;5003203;28;20181;-69
2023/01/01 01:39:18;;;;;;;10.82;5.45;;;15.70;1.00;;;;;;5020031;28;20258;-69
2023/01/01 01:41:46;;;;;;;10.40;4.85;;;15.70;1.00;;;;;;5001789;28;20718;-69
2023/01/01 01:44:44;;;;;;;9.40;5.07;;;15.80;1.00;;;;;;5020065;28;20678;-69
2023/01/01 01:47:36;;;;;;;10.60;5.45;;;15.80;1.00;;;;;;5018769;28;20196;-69
2023/01/01 01:50:06;;;;;;;10.85;5.25;;;15.80;1.00;;;;;;5011755;28;20324;-69
2023/01/01 01:52:36;;;;;;;13.05;5.53;;;15.70;1.00;;;;;;5018986;28;20575;-69
2023/01/01 01:55:07;;;;;;;14.00;5.40;;;15.70;1.00;;;;;;4985379;28;20641;-69
2023/01/01 01:57:37;;;;;;;10.82;5.95;;;15.70;1.00;;;;;;5002211;28;20606;-70
2023/01/01 02:00:05;;;;;;;9.55;4.65;;;15.60;1.00;;;;;;5002740;28;20212;-68
2023/01/01 02:02:59;;;;;;;11.05;5.20;;;15.70;1.00;;;;;;5019889;28;20197;-70
2023/01/01 02:05:27;;;;;;;13.10;6.75;;;15.70;1.00;;;;;;4978887;28;20210;-61
2023/01/01 02:07:55;;;;;;;17.25;6.00;;;15.60;1.00;;;;;;4968906;28;20720;-61
2023/01/01 02:10:22;;;;;;;12.60;5.00;;;15.70;1.00;;;;;;4983404;28;20229;-60
2023/01/01 02:12:49;;;;;;;7.65;4.60;;;15.60;1.00;;;;;;4959681;28;20249;-62
2023/01/01 02:15:16;;;;;;;12.60;4.85;;;15.60;1.00;;;;;;4969723;28;20839;-60
2023/01/01 02:17:55;;;;;;;8.50;4.55;;;15.60;1.00;;;;;;4984481;28;20561;-60
2023/01/01 02:20:39;;;;;;;9.95;4.63;;;15.60;1.00;;;;;;4984210;28;20734;-61
2023/01/01 02:23:25;;;;;;;11.23;5.10;;;15.50;1.00;;;;;;4957927;28;20218;-61
2023/01/01 02:26:17;;;;;;;7.30;3.80;;;15.50;1.00;;;;;;4968283;28;20655;-59
2023/01/01 02:28:53;;;;;;;6.88;3.58;;;15.60;1.00;;;;;;4967389;28;20202;-58
2023/01/01 02:31:26;;;;;;;8.77;4.20;;;15.50;1.00;;;;;;4967300;28;20190;-59
2023/01/01 02:33:58;;;;;;;7.82;3.80;;;15.40;1.00;;;;;;4974542;28;20202;-59
2023/01/01 02:36:27;;;;;;;9.15;5.22;;;15.40;1.00;;;;;;4965972;28;20213;-60
2023/01/01 02:38:56;;;;;;;9.68;3.13;;;15.50;1.00;;;;;;4959624;28;20656;-61
2023/01/01 02:41:29;;;;;;;6.78;3.10;;;15.50;1.00;;;;;;4968536;28;20196;-59
2023/01/01 02:43:56;;;;;;;8.00;4.93;;;15.40;1.00;;;;;;4973906;28;20198;-61
2023/01/01 02:46:22;;;;;;;11.50;4.30;;;15.50;1.00;;;;;;4957446;28;20170;-62
2023/01/01 02:48:52;;;;;;;8.52;3.10;;;15.50;1.00;;;;;;4958158;28;20221;-63
2023/01/01 02:51:28;;;;;;;6.07;2.70;;;15.40;1.00;;;;;;4964100;28;20206;-63
2023/01/01 02:54:15;;;;;;;7.03;2.97;;;15.40;1.00;;;;;;4974413;28;20190;-61
2023/01/01 02:56:49;;;;;;;6.72;2.92;;;15.40;1.00;;;;;;4957396;28;20735;-61
2023/01/01 03:02:30;;;;;;;5.72;3.20;;;15.40;1.00;;;;;;4966053;28;20245;-62
2023/01/01 03:05:00;;;;;;;6.82;3.00;;;15.40;1.00;;;;;;4936113;28;20231;-62
2023/01/01 03:07:54;;;;;;;6.25;2.95;;;15.40;1.00;;;;;;4938142;28;20202;-62
2023/01/01 03:10:33;;;;;;;7.20;2.50;;;15.40;1.00;;;;;;4939527;28;20210;-62
2023/01/01 03:13:37;;;;;;;7.68;3.00;;;15.30;1.00;;;;;;4953487;28;20203;-61
2023/01/01 03:16:31;;;;;;;3.10;1.95;;;15.50;1.00;;;;;;4953695;28;20680;-62
2023/01/01 03:19:29;;;;;;;5.80;2.33;;;15.50;1.00;;;;;;4936266;28;20686;-61
2023/01/01 03:22:15;;;;;;;7.20;3.13;;;15.50;1.00;;;;;;4936935;28;20238;-60
2023/01/01 03:24:52;;;;;;;4.93;3.15;;;15.40;1.00;;;;;;4953580;28;20250;-59
2023/01/01 03:27:24;;;;;;;6.10;2.95;;;15.40;1.00;;;;;;4951384;28;20198;-61
2023/01/01 03:29:55;;;;;;;4.28;1.98;;;15.40;1.00;;;;;;4952913;28;20203;-70
2023/01/01 03:33:00;;;;;;;8.10;3.10;;;15.40;1.00;;;;;;4938934;28;20199;-69
2023/01/01 03:35:34;;;;;;;10.25;3.08;;;15.40;1.00;;;;;;4938700;28;20290;-60
2023/01/01 03:38:04;;;;;;;6.10;2.00;;;15.40;1.00;;;;;;4951696;28;20196;-60
2023/01/01 03:40:35;;;;;;;8.38;2.40;;;15.40;1.00;;;;;;4935667;28;20200;-60
2023/01/01 03:43:09;;;;;;;3.40;2.28;;;15.40;1.00;;;;;;4936833;28;20632;-62
2023/01/01 03:45:39;;;;;;;9.88;2.55;;;15.40;1.00;;;;;;4936962;28;20286;-60
2023/01/01 03:48:06;;;;;;;5.88;2.80;;;15.50;1.00;;;;;;4937428;28;20718;-61
2023/01/01 03:51:00;;;;;;;6.80;2.47;;;15.50;1.00;;;;;;4952179;28;20231;-61
2023/01/01 03:53:40;;;;;;;5.82;2.10;;;15.50;1.00;;;;;;4935815;28;20275;-61
2023/01/01 03:56:22;;;;;;;4.68;1.88;;;15.40;1.00;;;;;;4935583;29;20674;-61
2023/01/01 03:58:57;;;;;;;7.85;4.07;;;15.40;1.00;;;;;;4936912;28;20710;-60
2023/01/01 04:01:36;;;;;;;8.88;5.30;;;15.50;1.00;;;;;;4936854;28;20712;-61
2023/01/01 04:04:05;;;;;;;6.72;2.08;;;15.30;1.00;;;;;;4937395;28;20626;-68
2023/01/01 04:06:32;;;;;;;8.90;3.35;;;15.50;1.00;;;;;;4950117;28;20188;-60
2023/01/01 04:09:01;;;;;;;8.48;4.35;;;15.40;1.00;;;;;;4936155;29;20207;-62
2023/01/01 04:14:28;;;;;;;8.88;2.53;;;15.50;1.00;;;;;;4936757;29;20222;-61
2023/01/01 04:16:56;;;;;;;6.95;2.45;;;15.40;1.00;;;;;;4951885;28;20231;-61
2023/01/01 04:19:24;;;;;;;7.20;4.00;;;15.40;1.00;;;;;;4936473;28;20294;-61
2023/01/01 04:21:51;;;;;;;9.05;2.10;;;15.30;1.00;;;;;;4949908;28;20215;-61
2023/01/01 04:24:18;;;;;;;7.95;2.25;;;15.40;1.00;;;;;;4950969;28;20319;-61
2023/01/01 04:26:47;;;;;;;5.78;1.85;;;15.50;1.00;;;;;;4937877;28;20278;-61
2023/01/01 04:29:14;;;;;;;6.75;2.65;;;15.40;1.00;;;;;;4937033;28;20732;-61
2023/01/01 04:31:41;;;;;;;4.72;1.60;;;15.50;1.00;;;;;;4936939;28;20226;-61
2023/01/01 04:34:08;;;;;;;7.05;2.47;;;15.50;1.00;;;;;;4935650;28;20665;-63
2023/01/01 04:36:36;;;;;;;4.60;2.13;;;15.50;1.00;;;;;;4950507;28;20310;-60
2023/01/01 04:39:03;;;;;;;11.68;2.60;;;15.50;1.00;;;;;;4951773;28;20558;-69
2023/01/01 04:41:30;;;;;;;4.32;1.73;;;15.40;1.00;;;;;;4936926;28;20839;-69
2023/01/01 04:43:58;;;;;;;4.50;2.03;;;15.50;1.00;;;;;;4950626;28;20654;-69
2023/01/01 04:46:25;;;;;;;4.50;2.17;;;15.50;1.00;;;;;;4951776;28;20206;-69
2023/01/01 04:48:52;;;;;;;5.28;1.75;;;15.50;1.00;;;;;;4950209;28;20211;-69
2023/01/01 04:51:20;;;;;;;5.93;1.73;;;15.50;1.00;;;;;;4933399;28;20709;-67
2023/01/01 04:53:47;;;;;;;8.23;1.73;;;15.40;1.00;;;;;;4937415;28;20206;-69
2023/01/01 04:56:21;;;;;;;4.35;1.73;;;15.40;1.00;;;;;;4949698;28;20570;-70
2023/01/01 04:58:49;;;;;;;4.30;2.28;;;15.50;1.00;;;;;;4950953;28;20192;-67
2023/01/01 05:01:22;;;;;;;5.18;1.85;;;15.40;1.00;;;;;;4936073;29;20227;-68
2023/01/01 05:03:49;;;;;;;5.18;2.65;;;15.50;1.00;;;;;;4936654;28;20737;-68
2023/01/01 05:06:17;;;;;;;4.35;2.53;;;15.40;1.00;;;;;;4935640;28;20650;-69
2023/01/01 05:08:46;;;;;;;5.35;2.50;;;15.40;1.00;;;;;;4936734;28;20251;-66
2023/01/01 05:11:18;;;;;;;5.80;2.28;;;15.30;1.00;;;;;;4948773;28;20318;-69
2023/01/01 05:13:48;;;;;;;7.53;2.50;;;15.40;1.00;;;;;;4943384;29;20206;-68
2023/01/01 05:16:17;;;;;;;4.57;1.45;;;15.40;1.00;;;;;;4934680;28;20278;-61
2023/01/01 05:18:45;;;;;;;4.78;1.90;;;15.40;1.00;;;;;;4950066;28;20655;-60
2023/01/01 05:21:18;;;;;;;5.00;1.80;;;15.40;1.00;;;;;;4935503;28;20196;-62
2023/01/01 05:23:46;;;;;;;4.18;1.73;;;15.30;1.00;;;;;;4950906;28;20789;-61
2023/01/01 05:26:17;;;;;;;7.82;1.88;;;15.40;1.00;;;;;;4936598;29;20375;-61
2023/01/01 05:28:45;;;;;;;9.85;2.00;;;15.30;1.00;;;;;;4937607;28;20203;-61
2023/01/01 05:31:15;;;;;;;5.72;1.80;;;15.20;1.00;;;;;;4950130;28;20713;-62
2023/01/01 05:33:42;;;;;;;3.97;1.60;;;15.20;1.00;;;;;;4949608;28;20215;-61
2023/01/01 05:36:14;;;;;;;2.70;1.27;;;15.20;1.00;;;;;;4949800;28;20213;-61
2023/01/01 05:38:41;;;;;;;6.57;1.80;;;15.20;1.00;;;;;;4935901;28;20310;-60
2023/01/01 05:41:11;;;;;;;3.72;1.60;;;15.10;1.00;;;;;;4935339;28;20210;-61
2023/01/01 05:43:38;;;;;;;3.97;1.48;;;15.00;1.00;;;;;;4937662;28;20195;-61
2023/01/01 05:46:09;;;;;;;5.30;1.67;;;14.90;1.00;;;;;;4949551;28;20204;-61
2023/01/01 05:48:36;;;;;;;5.18;1.85;;;15.00;1.00;;;;;;4949104;28;20207;-61
2023/01/01 05:51:05;;;;;;;3.67;1.48;;;14.90;1.00;;;;;;4935122;28;20243;-62
2023/01/01 05:53:33;;;;;;;4.38;1.58;;;14.80;1.00;;;;;;4949622;28;20247;-61
2023/01/01 05:56:00;;;;;;;8.95;1.92;;;14.90;1.00;;;;;;4950066;28;20249;-61
2023/01/01 05:58:29;;;;;;;3.80;1.83;;;14.80;1.00;;;;;;4935720;29;20249;-61
2023/01/01 06:01:08;;;;;;;3.78;1.65;;;14.70;1.00;;;;;;4934803;28;20612;-63
2023/01/01 06:03:36;;;;;;;3.58;1.77;;;14.80;1.00;;;;;;4933340;28;20766;-61
2023/01/01 06:06:09;;;;;;;4.63;1.95;;;14.80;1.00;;;;;;4952330;28;20235;-64
2023/01/01 06:08:37;;;;;;;3.72;1.58;;;14.90;1.00;;;;;;4938448;29;20282;-61
2023/01/01 06:11:06;;;;;;;3.75;1.70;;;14.90;1.00;;;;;;4938623;28;20227;-61
2023/01/01 06:13:33;;;;;;;2.88;1.55;;;14.80;1.00;;;;;;4953573;28;20215;-61
2023/01/01 06:16:01;;;;;;;5.85;2.15;;;14.80;1.00;;;;;;4938456;28;20659;-59
2023/01/01 06:18:30;;;;;;;2.25;1.38;;;14.80;1.00;;;;;;4953729;28;20269;-60
2023/01/01 06:21:08;;;;;;;15.00;4.47;;;14.70;1.00;;;;;;4939680;28;20217;-60
2023/01/01 06:23:35;;;;;;;32.85;17.10;;;14.70;1.00;;;;;;4952948;28;20774;-60
2023/01/01 06:26:20;;;;;;;17.55;9.23;;;14.80;1.00;;;;;;4938077;28;20198;-60
2023/01/01 06:28:48;;;;;;;17.92;8.15;;;14.80;1.00;;;;;;4953966;28;20196;-60
2023/01/01 06:31:20;;;;;;;5.75;3.13;;;14.80;1.00;;;;;;4939894;28;20231;-59
2023/01/01 06:33:47;;;;;;;8.23;3.30;;;14.90;1.00;;;;;;4940576;28;20449;-59
2023/01/01 06:36:17;;;;;;;6.53;2.75;;;14.90;1.00;;;;;;4953392;28;21115;-61
2023/01/01 06:38:46;;;;;;;14.00;4.85;;;14.90;1.00;;;;;;4952439;28;20271;-61
2023/01/01 06:41:17;;;;;;;12.30;5.53;;;14.90;1.00;;;;;;4938858;28;20625;-61
2023/01/01 06:43:45;;;;;;;7.75;2.25;;;14.80;1.00;;;;;;4939154;28;20206;-60
2023/01/01 06:46:18;;;;;;;5.97;2.22;;;14.90;1.00;;;;;;4938559;28;20342;-61
2023/01/01 06:48:47;;;;;;;10.18;4.30;;;14.90;1.00;;;;;;4938714;28;20203;-61
2023/01/01 06:51:35;;;;;;;7.60;2.45;;;14.90;1.00;;;;;;4939081;29;20647;-61
2023/01/01 06:54:04;;;;;;;8.07;3.05;;;14.80;1.00;;;;;;4938328;28;20531;-61
2023/01/01 06:56:31;;;;;;;4.97;1.60;;;14.90;1.00;;;;;;4937168;28;20282;-60
2023/01/01 06:58:59;;;;;;;5.28;1.88;;;15.00;1.00;;;;;;4936491;28;20311;-61
2023/01/01 07:01:31;;;;;;;6.20;1.73;;;14.90;1.00;;;;;;4938401;28;20742;-61
2023/01/01 07:04:00;;;;;;;5.50;2.03;;;15.00;1.00;;;;;;4938564;28;20245;-60
2023/01/01 07:06:29;;;;;;;4.05;2.28;;;15.00;1.00;;;;;;4936734;28;20259;-60
2023/01/01 07:08:56;;;;;;;7.03;1.85;;;15.00;1.00;;;;;;4951281;28;20294;-60
2023/01/01 07:11:24;;;;;;;5.38;2.17;;;15.10;1.00;;;;;;4952370;28;20778;-61
2023/01/01 07:13:52;;;;;;;4.40;1.95;;;15.00;1.00;;;;;;4938054;29;20223;-60
2023/01/01 07:16:19;;;;;;;4.10;1.50;;;14.90;1.00;;;;;;4935861;28;20231;-61
2023/01/01 07:18:47;;;;;;;3.70;2.03;;;14.90;1.00;;;;;;4952557;28;20209;-61
2023/01/01 07:21:32;;;;;;;4.43;1.80;;;14.90;1.00;;;;;;4952255;28;20663;-60
2023/01/01 07:24:01;;;;;;;6.10;1.63;;;14.90;1.00;;;;;;4953003;28;20678;-61
2023/01/01 07:26:29;;;;;;;3.03;1.52;;;14.80;1.00;;;;;;4939782;28;20209;-60
2023/01/01 07:28:56;;;;;;;2.05;1.80;;;14.80;1.00;;;;;;4952661;28;20899;-61
2023/01/01 07:31:32;;;;;;;6.03;1.88;;;14.90;1.00;;;;;;4937419;28;20433;-60
2023/01/01 07:33:59;;;;;;;5.47;1.92;;;14.80;1.00;;;;;;4951475;28;20203;-61
2023/01/01 07:36:26;;;;;;;3.35;1.88;;;14.80;1.00;;;;;;4952458;28;20195;-68
2023/01/01 07:38:53;;;;;;;5.75;2.30;;;14.70;1.00;;;;;;4937925;28;20196;-68
2023/01/01 07:41:21;;;;;;;7.43;2.13;;;14.70;1.00;;;;;;4937429;28;20725;-66
2023/01/01 07:43:49;;;;;;;4.63;1.92;;;14.70;1.00;;;;;;4934823;28;20235;-66
2023/01/01 07:46:17;;;;;;;7.57;1.88;;;14.70;1.00;;;;;;4935302;28;20633;-69
2023/01/01 07:48:45;;;;;;;3.33;1.80;;;14.70;1.00;;;;;;4951062;28;20214;-68
2023/01/01 07:51:12;;;;;;;4.38;1.48;;;14.70;1.00;;;;;;4936989;28;20222;-68
2023/01/01 07:53:39;;;;;;;3.13;1.80;;;14.70;1.00;;;;;;4936874;28;20254;-68
2023/01/01 07:56:07;;;;;;;2.83;1.50;;;14.70;1.00;;;;;;4937932;28;20191;-60
2023/01/01 07:58:37;;;;;;;5.13;2.00;;;14.70;1.00;;;;;;4938093;28;20279;-60
2023/01/01 08:01:04;;;;;;;2.38;1.70;;;14.70;1.00;;;;;;4936786;28;20199;-63
2023/01/01 08:03:31;;;;;;;5.03;2.25;;;14.70;1.00;;;;;;4950871;28;20346;-72
2023/01/01 08:05:58;;;;;;;5.03;1.95;;;14.70;1.00;;;;;;4951793;28;20204;-61
2023/01/01 08:08:25;;;;;;;2.70;1.77;;;14.60;1.00;;;;;;4949760;28;20281;-61
2023/01/01 08:10:52;;;;;;;4.07;1.85;;;14.60;1.00;;;;;;4935915;28;20239;-61
2023/01/01 08:13:19;;;;;;;5.38;2.03;;;14.50;1.00;;;;;;4937266;28;20869;-61
2023/01/01 08:15:46;;;;;;;4.10;1.83;;;14.40;1.00;;;;;;4951265;28;20663;-60
2023/01/01 08:18:13;;;;;;;3.50;1.90;;;14.40;1.00;;;;;;4937997;28;20198;-60
2023/01/01 08:20:40;;;;;;;7.40;2.08;;;14.30;1.00;;;;;;4952715;28;20308;-60
2023/01/01 08:23:07;;;;;;;3.88;1.85;;;14.30;1.00;;;;;;4950915;28;20210;-60
2023/01/01 08:25:34;;;;;;;3.90;1.92;;;14.40;1.00;;;;;;4938712;28;20230;-63
2023/01/01 08:28:01;;;;;;;4.25;2.00;;;14.40;1.00;;;;;;4952231;28;20211;-60
2023/01/01 08:30:28;;;;;;;4.82;2.22;;;14.40;1.00;;;;;;4955519;28;20208;-63
2023/01/01 08:32:55;;;;;;;4.10;2.00;;;14.40;1.00;;;;;;4951873;28;20294;-59
2023/01/01 08:35:22;;;;;;;7.90;1.98;;;14.40;1.00;;;;;;4997507;23;20773;-65
2023/01/01 08:37:49;;;;;;;7.10;1.90;;;14.30;1.00;;;;;;4963446;28;20285;-69
2023/01/01 08:40:16;;;;;;;6.07;2.13;;;14.30;1.00;;;;;;4965491;28;20273;-68
2023/01/01 08:42:43;;;;;;;5.70;1.80;;;14.30;1.00;;;;;;4956643;28;20312;-68
2023/01/01 08:45:10;;;;;;;4.00;2.03;;;14.40;1.00;;;;;;4964313;28;20678;-66
2023/01/01 08:47:37;;;;;;;3.28;2.47;;;14.30;1.00;;;;;;4963902;28;20233;-66
2023/01/01 08:50:04;;;;;;;6.05;2.13;;;14.30;1.00;;;;;;4979782;28;20202;-68
2023/01/01 08:52:31;;;;;;;6.85;2.47;;;14.20;1.00;;;;;;4962219;28;20301;-65
2023/01/01 08:54:59;;;;;;;6.25;2.30;;;14.30;1.00;;;;;;4965668;28;20761;-69
2023/01/01 08:57:30;;;;;;;6.30;3.53;;;14.30;1.00;;;;;;4956919;28;20240;-67
2023/01/01 08:59:57;;;;;;;5.38;2.30;;;14.20;1.00;;;;;;4964574;28;20284;-62
2023/01/01 09:02:24;;;;;;;4.95;2.28;;;14.30;1.00;;;;;;4972192;28;20288;-60
2023/01/01 09:04:51;;;;;;;7.93;2.10;;;14.30;1.00;;;;;;4964755;28;20191;-61
2023/01/01 09:07:18;;;;;;;5.70;2.35;;;14.20;1.00;;;;;;4954478;28;20297;-61
2023/01/01 09:09:45;;;;;;;6.30;2.45;;;14.20;1.00;;;;;;4964386;28;20256;-60
2023/01/01 09:12:15;;;;;;;4.32;1.98;;;14.20;1.00;;;;;;4965992;28;20245;-59
2023/01/01 09:14:45;;;;;;;8.68;2.17;;;14.20;1.00;;;;;;4964697;28;20254;-59
2023/01/01 09:17:12;;;;;;;8.07;2.20;;;14.30;1.00;;;;;;4964217;28;20197;-60
2023/01/01 09:19:39;;;;;;;4.80;2.20;;;14.30;1.00;;;;;;4962926;28;20273;-60
2023/01/01 09:22:10;;;;;;;4.10;1.83;;;14.30;1.00;;;;;;4963886;28;20678;-58
2023/01/01 09:24:37;;;;;;;5.30;2.10;;;14.30;1.00;;;;;;4965037;28;20199;-58
2023/01/01 09:27:04;;;;;;;6.43;1.85;;;14.30;1.00;;;;;;4954897;28;20202;-62
2023/01/01 09:29:31;;;;;;;8.07;2.03;;;14.30;1.00;;;;;;4963189;28;20198;-58
2023/01/01 09:31:58;;;;;;;5.83;2.43;;;14.40;1.00;;;;;;4963786;28;20360;-59
2023/01/01 09:34:26;;;;;;;3.75;1.98;;;14.40;1.00;;;;;;4955416;28;20226;-57
2023/01/01 09:36:53;;;;;;;6.40;2.13;;;14.40;1.00;;;;;;4962108;28;20209;-57
2023/01/01 09:39:20;;;;;;;7.18;2.00;;;14.40;1.00;;;;;;4964156;28;20199;-58
2023/01/01 09:41:50;;;;;;;6.70;2.20;;;14.40;1.00;;;;;;4967436;28;20301;-58
2023/01/01 09:44:49;;;;;;;4.78;1.92;;;14.50;1.00;;;;;;4975171;28;20205;-59
2023/01/01 09:47:23;;;;;;;5.35;1.83;;;14.50;1.00;;;;;;4950464;28;20582;-58
2023/01/01 09:49:53;;;;;;;8.27;2.05;;;14.40;1.00;;;;;;4964944;28;20194;-59
2023/01/01 09:52:20;;;;;;;5.47;2.57;;;14.50;1.00;;;;;;4965715;28;20218;-59
2023/01/01 09:54:54;;;;;;;6.00;2.20;;;14.50;1.00;;;;;;4967746;28;20198;-68
2023/01/01 09:57:29;;;;;;;6.50;1.90;;;14.50;1.00;;;;;;4984008;28;20249;-68
2023/01/01 09:59:58;;;;;;;10.27;2.45;;;14.60;1.00;;;;;;4967361;28;20209;-59
2023/01/01 10:02:34;;;;;;;3.90;2.25;;;14.60;1.00;;;;;;4963961;28;20756;-63
2023/01/01 10:05:38;;;;;;;5.95;1.83;;;14.60;1.00;;;;;;4964920;28;20543;-59
2023/01/01 10:08:24;;;;;;;7.18;2.40;;;14.70;1.00;;;;;;4981654;28;20685;-60
2023/01/01 10:11:12;;;;;;;5.55;2.47;;;14.80;1.00;;;;;;4966537;28;20482;-59
2023/01/01 10:13:44;;;;;;;7.50;2.47;;;14.70;1.00;;;;;;4966590;28;20199;-60
2023/01/01 10:16:21;;;;;;;6.63;2.70;;;14.80;1.00;;;;;;4949965;28;20200;-59
2023/01/01 10:19:11;;;;;;;6.82;2.15;;;14.80;1.00;;;;;;4965545;28;20224;-60
2023/01/01 10:21:43;;;;;;;6.25;2.33;;;14.80;1.00;;;;;;4979904;28;20277;-58
2023/01/01 10:24:22;;;;;;;6.82;2.65;;;14.80;1.00;;;;;;4966131;28;20692;-59
2023/01/01 10:26:52;;;;;;;8.27;2.22;;;14.80;1.00;;;;;;4969923;28;20281;-60
2023/01/01 10:29:48;;;;;;;5.53;2.17;;;14.80;1.00;;;;;;4982472;28;20210;-60
2023/01/01 10:32:29;;;;;;;8.00;2.67;;;14.80;1.00;;;;;;4965742;28;20240;-59
2023/01/01 10:34:57;;;;;;;7.90;2.00;;;14.70;1.00;;;;;;4967391;28;20254;-64
2023/01/01 10:37:30;;;;;;;6.77;2.23;;;14.80;1.00;;;;;;4966869;28;20187;-60
2023/01/01 10:39:57;;;;;;;7.60;2.33;;;14.80;1.00;;;;;;4968708;28;20194;-60
2023/01/01 10:42:25;;;;;;;6.65;2.00;;;14.90;1.00;;;;;;4966444;28;20187;-62
2023/01/01 10:44:52;;;;;;;6.93;1.83;;;14.90;1.00;;;;;;4982093;28;20225;-59
2023/01/01 10:47:27;;;;;;;6.57;2.10;;;15.00;1.00;;;;;;4957799;28;20210;-60
2023/01/01 10:50:00;;;;;;;5.93;1.92;;;14.90;1.00;;;;;;4967428;28;20216;-67
2023/01/01 10:52:35;;;;;;;8.43;2.40;;;15.00;1.00;;;;;;4983282;28;20225;-63
2023/01/01 10:55:04;;;;;;;5.43;2.00;;;15.00;1.00;;;;;;4967523;28;20725;-58
2023/01/01 10:57:37;;;;;;;6.72;2.28;;;15.00;1.00;;;;;;4966134;28;20214;-59
2023/01/01 11:00:24;;;;;;;7.03;2.10;;;15.00;1.00;;;;;;4967156;28;20309;-59
2023/01/01 11:03:16;;;;;;;7.10;2.35;;;15.10;1.00;;;;;;4981428;28;20776;-60
2023/01/01 11:06:04;;;;;;;8.35;1.80;;;15.10;1.00;;;;;;4966679;28;20701;-61
2023/01/01 11:08:33;;;;;;;6.68;2.00;;;15.20;1.00;;;;;;4966540;28;20444;-60
2023/01/01 11:11:01;;;;;;;4.45;1.80;;;15.20;1.00;;;;;;4966677;28;20202;-65
2023/01/01 11:13:31;;;;;;;5.40;1.83;;;15.20;1.00;;;;;;4967290;28;20250;-66
2023/01/01 11:15:58;;;;;;;7.05;2.20;;;15.30;1.00;;;;;;4968500;28;20918;-68
2023/01/01 11:18:34;;;;;;;8.75;2.35;;;15.30;1.00;;;;;;4967842;28;20222;-69
2023/01/01 11:21:04;;;;;;;5.05;1.80;;;15.40;1.00;;;;;;4984021;28;20210;-70
2023/01/01 11:23:35;;;;;;;9.35;2.10;;;15.40;1.00;;;;;;4963999;28;20831;-68
2023/01/01 11:26:06;;;;;;;4.00;2.00;;;15.50;1.00;;;;;;4966827;28;20202;-68
2023/01/01 11:28:34;;;;;;;6.22;2.13;;;15.60;1.00;;;;;;4963252;28;20545;-65
2023/01/01 11:31:17;;;;;;;7.85;2.10;;;15.60;1.00;;;;;;4965606;28;20202;-69
2023/01/01 11:33:56;;;;;;;6.38;2.13;;;15.70;1.00;;;;;;4966778;28;20641;-65
2023/01/01 11:36:28;;;;;;;5.35;1.90;;;15.70;1.00;;;;;;4981291;28;20237;-58
2023/01/01 11:39:13;;;;;;;5.38;1.83;;;15.60;1.00;;;;;;4966669;28;20278;-60
2023/01/01 11:41:42;;;;;;;5.88;2.25;;;15.60;1.00;;;;;;4964930;28;20198;-66
2023/01/01 11:44:38;;;;;;;6.07;2.20;;;15.50;1.00;;;;;;4949631;28;20237;-71
2023/01/01 11:47:06;;;;;;;6.35;2.10;;;15.40;1.00;;;;;;4982554;28;20194;-65
2023/01/01 11:49:34;;;;;;;5.72;2.15;;;15.40;1.00;;;;;;4965968;28;20293;-69
2023/01/01 11:52:35;;;;;;;6.60;2.03;;;15.40;1.00;;;;;;4968046;28;20257;-57
2023/01/01 11:55:42;;;;;;;4.00;2.00;;;15.30;1.00;;;;;;4967438;28;20209;-58
2023/01/01 11:58:31;;;;;;;7.65;2.28;;;15.20;1.00;;;;;;4937093;28;20755;-59
2023/01/01 12:01:04;;;;;;;7.88;2.10;;;15.20;1.00;;;;;;4965680;28;20548;-58
2023/01/01 12:03:34;;;;;;;4.90;1.70;;;15.20;1.00;;;;;;4964574;28;20202;-58
2023/01/01 12:06:26;;;;;;;4.22;1.95;;;15.20;1.00;;;;;;4981019;28;20241;-58
2023/01/01 12:09:09;;;;;;;5.40;2.33;;;15.30;1.00;;;;;;4980753;28;20206;-58
2023/01/01 12:12:04;;;;;;;6.07;2.20;;;15.30;1.00;;;;;;4965287;28;20292;-58
2023/01/01 12:14:38;;;;;;;5.97;2.25;;;15.20;1.00;;;;;;4964077;28;20748;-58
2023/01/01 12:17:24;;;;;;;6.20;2.08;;;15.20;1.00;;;;;;4966055;28;20197;-59
2023/01/01 12:20:03;;;;;;;4.78;2.03;;;15.20;1.00;;;;;;4963409;28;20282;-62
2023/01/01 12:22:32;;;;;;;5.45;2.25;;;15.20;1.00;;;;;;4962757;28;20392;-57
2023/01/01 12:24:59;;;;;;;6.57;2.00;;;15.20;1.00;;;;;;4965123;28;20301;-59
2023/01/01 12:27:41;;;;;;;6.05;2.28;;;15.20;1.00;;;;;;4965560;28;20186;-60
2023/01/01 12:30:24;;;;;;;10.13;2.05;;;15.20;1.00;;;;;;4965031;28;20409;-58
2023/01/01 12:33:06;;;;;;;5.07;1.90;;;15.20;1.00;;;;;;4963481;28;20767;-58
2023/01/01 12:35:40;;;;;;;7.78;2.28;;;15.20;1.00;;;;;;4962037;28;20630;-59
2023/01/01 12:38:17;;;;;;;7.28;2.30;;;15.10;1.00;;;;;;4962017;28;20710;-59
2023/01/01 12:41:26;;;;;;;5.53;2.20;;;15.10;1.00;;;;;;4965355;28;20273;-59
2023/01/01 12:44:04;;;;;;;10.10;3.03;;;15.10;1.00;;;;;;4950536;28;20206;-58
2023/01/01 12:46:52;;;;;;;5.80;2.83;;;15.00;1.00;;;;;;4964352;28;20190;-58
2023/01/01 12:49:25;;;;;;;6.70;2.78;;;15.00;1.00;;;;;;4964239;28;20202;-59
2023/01/01 12:52:30;;;;;;;7.75;2.53;;;15.10;1.00;;;;;;4964465;28;20650;-58
2023/01/01 12:55:15;;;;;;;7.63;3.08;;;15.20;1.00;;;;;;4965799;28;20210;-58
2023/01/01 12:57:48;;;;;;;8.57;3.25;;;15.20;1.00;;;;;;4948553;28;20197;-59
2023/01/01 13:00:18;;;;;;;10.55;2.67;;;15.10;1.00;;;;;;4965053;28;20197;-59
2023/01/01 13:02:59;;;;;;;9.13;3.38;;;15.20;1.00;;;;;;4963635;28;20222;-58
2023/01/01 13:05:40;;;;;;;7.68;2.65;;;15.20;1.00;;;;;;4964442;28;20526;-58
2023/01/01 13:08:07;;;;;;;7.60;2.38;;;15.30;1.00;;;;;;4965562;28;20261;-58
2023/01/01 13:10:36;;;;;;;8.57;3.60;;;15.30;1.00;;;;;;4963827;28;20285;-58
2023/01/01 13:13:04;;;;;;;4.78;2.65;;;15.20;1.00;;;;;;4964545;28;20206;-58
2023/01/01 13:15:42;;;;;;;8.38;2.88;;;15.20;1.00;;;;;;4963828;28;20233;-57
2023/01/01 13:18:12;;;;;;;7.45;3.70;;;15.20;1.00;;;;;;4977576;28;20209;-57
2023/01/01 13:20:40;;;;;;;8.85;3.72;;;15.20;1.00;;;;;;4963645;28;20353;-58
2023/01/01 13:23:33;;;;;;;7.85;4.43;;;15.10;1.00;;;;;;4965185;28;20194;-58
2023/01/01 13:26:19;;;;;;;7.13;3.38;;;15.00;1.00;;;;;;4965789;28;20208;-57
2023/01/01 13:28:59;;;;;;;11.07;5.47;;;15.00;1.00;;;;;;4964290;28;20210;-58
2023/01/01 13:31:38;;;;;;;11.45;5.25;;;15.00;1.00;;;;;;4965837;28;20197;-59
2023/01/01 13:34:34;;;;;;;5.80;1.90;;;15.00;1.00;;;;;;4947208;28;20209;-58